Time;durP1;ratioP1;P1;durP2;ratioP2;P2;SDS_P1;SDS_P2;PMS_P1;PMS_P2;Temp;Humidity;BMP_temperature;BMP_pressure;BME280_temperature;BME280_humidity;BME280_pressure;Samples;Min_cycle;Max_cycle;Signal;HPM_P1;HPM_P2
2020/12/25 00:02:08;;;;;;;46.75;21.83;;;9.20;99.90;;;;;;5067583;28;20040;-57
2020/12/25 00:04:35;;;;;;;33.88;18.83;;;9.20;99.90;;;;;;5068096;28;20040;-54
2020/12/25 00:07:01;;;;;;;44.97;22.17;;;9.20;99.90;;;;;;5070231;28;20086;-54
2020/12/25 00:09:27;;;;;;;39.35;22.23;;;9.20;99.90;;;;;;5066467;28;20060;-54
2020/12/25 00:11:53;;;;;;;53.42;24.10;;;9.20;99.90;;;;;;5067004;28;20884;-56
2020/12/25 00:14:19;;;;;;;39.70;21.17;;;9.20;99.90;;;;;;5051898;28;20044;-54
2020/12/25 00:16:45;;;;;;;36.65;20.85;;;9.20;99.90;;;;;;5062239;28;20033;-57
2020/12/25 00:19:10;;;;;;;35.75;19.13;;;9.20;99.90;;;;;;5060860;28;20032;-57
2020/12/25 00:21:37;;;;;;;43.67;20.73;;;9.20;99.90;;;;;;5061841;28;20094;-55
2020/12/25 00:24:04;;;;;;;46.88;20.23;;;9.20;99.90;;;;;;5062979;28;20043;-54
2020/12/25 00:26:31;;;;;;;42.75;17.23;;;9.20;99.90;;;;;;5062443;28;20036;-55
2020/12/25 00:28:58;;;;;;;53.65;19.13;;;9.20;99.90;;;;;;5067353;28;20032;-56
2020/12/25 00:31:29;;;;;;;56.65;22.45;;;9.20;99.90;;;;;;5060254;28;20522;-56
2020/12/25 00:33:57;;;;;;;54.22;22.00;;;9.20;99.90;;;;;;5060977;28;20040;-59
2020/12/25 00:36:40;;;;;;;55.33;21.92;;;9.20;99.90;;;;;;5059112;28;20058;-51
2020/12/25 00:39:10;;;;;;;59.53;23.17;;;9.20;99.90;;;;;;5059224;28;20121;-54
2020/12/25 00:41:40;;;;;;;60.67;22.55;;;9.20;99.90;;;;;;5068172;28;20040;-55
2020/12/25 00:44:06;;;;;;;100.45;24.27;;;9.20;99.90;;;;;;5069116;28;20197;-54
2020/12/25 00:46:32;;;;;;;70.88;23.83;;;9.20;99.90;;;;;;5068159;28;20162;-53
2020/12/25 00:48:58;;;;;;;90.82;24.98;;;9.20;99.90;;;;;;5069087;28;20028;-58
2020/12/25 00:51:24;;;;;;;59.67;22.15;;;9.20;99.90;;;;;;5067644;28;20044;-54
2020/12/25 00:53:49;;;;;;;57.05;20.20;;;9.20;99.90;;;;;;5068990;28;20036;-56
2020/12/25 00:56:16;;;;;;;66.47;20.52;;;9.20;99.90;;;;;;5067277;28;20032;-55
2020/12/25 00:58:42;;;;;;;73.70;21.60;;;9.20;99.90;;;;;;5069239;28;20056;-52
2020/12/25 01:01:10;;;;;;;62.15;20.80;;;9.10;99.90;;;;;;5066493;28;20032;-55
2020/12/25 01:03:37;;;;;;;72.72;23.13;;;9.20;99.90;;;;;;5069006;28;20487;-53
2020/12/25 01:06:19;;;;;;;79.07;24.85;;;9.10;99.90;;;;;;5065852;28;20046;-54
2020/12/25 01:08:47;;;;;;;80.15;25.08;;;9.20;99.90;;;;;;5048580;28;20148;-53
2020/12/25 01:11:13;;;;;;;65.80;24.35;;;9.10;99.90;;;;;;5066721;28;20047;-51
2020/12/25 01:13:40;;;;;;;88.47;25.73;;;9.10;99.90;;;;;;5068460;28;20068;-52
2020/12/25 01:16:15;;;;;;;96.40;24.67;;;9.10;99.90;;;;;;5061455;28;20457;-51
2020/12/25 01:18:44;;;;;;;209.20;32.65;;;9.10;99.90;;;;;;5053351;28;20031;-54
2020/12/25 01:21:10;;;;;;;104.20;25.60;;;9.10;99.90;;;;;;5066909;28;20036;-55
2020/12/25 01:23:37;;;;;;;89.38;27.17;;;9.10;99.90;;;;;;5067692;28;20545;-54
2020/12/25 01:26:05;;;;;;;84.68;27.33;;;9.10;99.90;;;;;;5067753;28;20114;-53
2020/12/25 01:28:31;;;;;;;85.10;26.60;;;9.10;99.90;;;;;;5067626;28;20038;-57
2020/12/25 01:30:57;;;;;;;77.15;26.95;;;9.10;99.90;;;;;;5067797;28;20545;-55
2020/12/25 01:33:23;;;;;;;77.20;26.95;;;9.00;99.90;;;;;;5067736;28;20058;-57
2020/12/25 01:35:49;;;;;;;76.57;27.90;;;9.00;99.90;;;;;;5067456;28;20037;-59
2020/12/25 01:38:15;;;;;;;108.82;28.10;;;9.00;99.90;;;;;;5068006;28;20102;-57
2020/12/25 01:40:41;;;;;;;75.95;25.90;;;9.00;99.90;;;;;;5067692;28;20033;-54
2020/12/25 01:43:06;;;;;;;171.20;32.05;;;9.00;99.90;;;;;;5068594;28;20024;-55
2020/12/25 01:45:32;;;;;;;91.05;27.88;;;9.00;99.90;;;;;;5067569;28;20086;-52
2020/12/25 01:47:59;;;;;;;111.35;28.75;;;9.00;99.90;;;;;;5068453;28;20078;-55
2020/12/25 01:50:27;;;;;;;103.47;28.38;;;9.00;99.90;;;;;;5067225;28;20036;-55
2020/12/25 01:52:55;;;;;;;114.20;29.38;;;9.00;99.90;;;;;;5067888;28;20027;-53
2020/12/25 01:55:25;;;;;;;109.60;30.27;;;9.00;99.90;;;;;;5067430;28;20033;-51
2020/12/25 01:57:54;;;;;;;102.60;28.58;;;9.00;99.90;;;;;;5050394;28;20085;-54
2020/12/25 02:00:20;;;;;;;102.78;29.63;;;9.00;99.90;;;;;;5066038;28;20127;-56
2020/12/25 02:02:45;;;;;;;96.78;27.98;;;9.00;99.90;;;;;;5067548;28;20450;-53
2020/12/25 02:05:11;;;;;;;111.45;28.92;;;8.90;99.90;;;;;;5070936;28;20100;-55
2020/12/25 02:07:37;;;;;;;97.35;27.08;;;8.90;99.90;;;;;;5071150;28;20102;-56
2020/12/25 02:10:03;;;;;;;105.97;25.38;;;8.90;99.90;;;;;;5071293;28;20087;-51
2020/12/25 02:12:29;;;;;;;97.53;28.33;;;8.90;99.90;;;;;;5071269;28;20041;-54
2020/12/25 02:14:54;;;;;;;100.60;28.83;;;8.90;99.90;;;;;;5070477;28;20047;-55
2020/12/25 02:17:20;;;;;;;134.20;27.88;;;8.90;99.90;;;;;;5071821;28;20473;-56
2020/12/25 02:19:46;;;;;;;104.32;27.80;;;8.90;99.90;;;;;;5070470;28;20036;-56
2020/12/25 02:22:11;;;;;;;101.53;26.90;;;8.90;99.90;;;;;;5069077;28;20420;-56
2020/12/25 02:24:37;;;;;;;97.18;27.23;;;8.90;99.90;;;;;;5071006;28;20474;-56
2020/12/25 02:27:03;;;;;;;95.32;26.50;;;8.90;99.90;;;;;;5070637;28;20496;-54
2020/12/25 02:29:29;;;;;;;86.15;24.90;;;8.90;99.90;;;;;;5071712;28;20043;-52
2020/12/25 02:31:54;;;;;;;86.72;27.38;;;8.90;99.90;;;;;;5070424;28;20074;-54
2020/12/25 02:34:20;;;;;;;114.80;28.60;;;8.90;99.90;;;;;;5070591;28;20051;-54
2020/12/25 02:36:46;;;;;;;105.00;29.02;;;8.90;99.90;;;;;;5071714;28;20063;-55
2020/12/25 02:39:12;;;;;;;106.53;27.98;;;8.90;99.90;;;;;;5069822;28;21852;-58
2020/12/25 02:41:37;;;;;;;134.20;29.08;;;8.90;99.90;;;;;;5070735;28;20051;-55
2020/12/25 02:46:38;;;;;;;174.13;28.52;;;8.90;99.90;;;;;;5007864;22;19966;-51
2020/12/25 02:49:04;;;;;;;201.00;28.67;;;8.90;99.90;;;;;;5070756;28;20401;-59
2020/12/25 02:51:30;;;;;;;169.05;27.67;;;8.80;99.90;;;;;;5070060;28;20407;-55
2020/12/25 02:53:55;;;;;;;187.88;29.73;;;8.80;99.90;;;;;;5070770;28;20540;-54
2020/12/25 02:56:21;;;;;;;240.90;29.77;;;8.80;99.90;;;;;;5070882;28;20132;-56
2020/12/25 02:58:47;;;;;;;143.65;26.77;;;8.80;99.90;;;;;;5051289;28;20313;-54
2020/12/25 03:01:14;;;;;;;102.32;23.92;;;8.80;99.90;;;;;;5051075;28;20033;-50
2020/12/25 03:03:41;;;;;;;115.88;26.25;;;8.80;99.90;;;;;;5069723;28;20055;-56
2020/12/25 03:06:07;;;;;;;128.93;25.67;;;8.80;99.90;;;;;;5071108;28;20119;-55
2020/12/25 03:08:33;;;;;;;108.15;25.50;;;8.80;99.90;;;;;;5070017;28;20566;-58
2020/12/25 03:10:59;;;;;;;126.68;26.52;;;8.80;99.90;;;;;;5069350;28;20068;-56
2020/12/25 03:13:26;;;;;;;132.52;26.35;;;8.80;99.90;;;;;;5069809;28;20067;-54
2020/12/25 03:15:51;;;;;;;122.35;26.35;;;8.80;99.90;;;;;;5070199;28;20028;-53
2020/12/25 03:18:18;;;;;;;120.38;27.48;;;8.80;99.90;;;;;;5066396;28;20145;-56
2020/12/25 03:20:44;;;;;;;167.63;27.17;;;8.80;99.90;;;;;;5069943;28;20060;-54
2020/12/25 03:23:10;;;;;;;172.45;32.08;;;8.80;99.90;;;;;;5066393;28;20839;-52
2020/12/25 03:25:36;;;;;;;209.80;31.83;;;8.80;99.90;;;;;;5070261;28;20375;-57
2020/12/25 03:28:02;;;;;;;208.07;30.45;;;8.80;99.90;;;;;;5068943;28;20131;-55
2020/12/25 03:30:28;;;;;;;210.85;30.00;;;8.70;99.90;;;;;;5067554;28;20472;-55
2020/12/25 03:32:53;;;;;;;259.92;30.90;;;8.80;99.90;;;;;;5069926;28;20111;-54
2020/12/25 03:35:19;;;;;;;299.83;31.23;;;8.80;99.90;;;;;;5069984;28;20135;-58
2020/12/25 03:37:45;;;;;;;302.55;33.03;;;8.80;99.90;;;;;;5069748;28;20385;-58
2020/12/25 03:40:11;;;;;;;211.27;31.48;;;8.80;99.90;;;;;;5070796;28;20035;-56
2020/12/25 03:42:37;;;;;;;129.77;28.08;;;8.70;99.90;;;;;;5069100;28;20113;-55
2020/12/25 03:45:04;;;;;;;225.25;28.30;;;8.70;99.90;;;;;;5069466;28;20059;-54
2020/12/25 03:47:30;;;;;;;120.18;27.85;;;8.80;99.90;;;;;;5059090;28;20055;-52
2020/12/25 03:49:55;;;;;;;136.20;27.35;;;8.80;99.90;;;;;;5065854;28;20365;-58
2020/12/25 03:52:21;;;;;;;131.07;26.88;;;8.80;99.90;;;;;;5070831;28;20029;-55
2020/12/25 03:54:47;;;;;;;139.20;28.92;;;8.80;99.90;;;;;;5067578;28;20058;-55
2020/12/25 03:57:13;;;;;;;162.30;23.67;;;8.80;99.90;;;;;;5070125;28;20574;-53
2020/12/25 03:59:39;;;;;;;141.27;24.55;;;8.80;99.90;;;;;;5068482;28;20029;-54
2020/12/25 04:02:05;;;;;;;181.35;26.23;;;8.80;99.90;;;;;;5067951;28;20056;-55
2020/12/25 04:04:31;;;;;;;116.70;23.10;;;8.80;99.90;;;;;;5069202;28;20029;-54
2020/12/25 04:06:56;;;;;;;222.65;27.30;;;8.90;99.90;;;;;;5069960;28;20029;-57
2020/12/25 04:09:22;;;;;;;145.35;25.27;;;8.80;99.90;;;;;;5068783;28;20040;-57
2020/12/25 04:11:49;;;;;;;366.25;34.63;;;8.80;99.90;;;;;;5069826;28;20032;-56
2020/12/25 04:14:16;;;;;;;142.85;27.48;;;8.80;99.90;;;;;;5066815;28;20089;-52
2020/12/25 04:16:42;;;;;;;154.75;28.17;;;8.80;99.90;;;;;;5069639;28;20559;-58
2020/12/25 04:19:08;;;;;;;244.80;30.42;;;8.80;99.90;;;;;;5068661;28;20127;-52
2020/12/25 04:21:34;;;;;;;306.08;30.50;;;8.80;99.90;;;;;;5069905;28;20100;-55
2020/12/25 04:23:59;;;;;;;195.15;28.98;;;8.80;99.90;;;;;;5064031;28;20045;-58
2020/12/25 04:26:25;;;;;;;196.07;29.13;;;8.90;99.90;;;;;;5068908;28;20052;-51
2020/12/25 04:28:51;;;;;;;447.77;37.38;;;8.90;99.90;;;;;;5065357;28;20590;-55
2020/12/25 04:31:17;;;;;;;440.83;39.03;;;8.80;99.90;;;;;;5065968;28;20063;-54
2020/12/25 04:33:43;;;;;;;202.15;33.00;;;8.80;99.90;;;;;;5067610;28;20404;-57
2020/12/25 04:36:08;;;;;;;302.20;31.27;;;8.80;99.90;;;;;;5068466;28;20040;-57
2020/12/25 04:38:34;;;;;;;326.80;33.47;;;8.80;99.90;;;;;;5062465;28;20115;-53
2020/12/25 04:41:01;;;;;;;266.90;32.63;;;8.80;99.90;;;;;;5061663;28;20032;-54
2020/12/25 04:43:29;;;;;;;280.02;30.40;;;8.90;99.90;;;;;;5064846;28;20029;-56
2020/12/25 04:45:55;;;;;;;296.85;30.95;;;8.90;99.90;;;;;;5067687;28;20056;-55
2020/12/25 04:48:21;;;;;;;357.58;34.22;;;8.80;99.90;;;;;;5068127;28;20036;-55
2020/12/25 04:50:47;;;;;;;258.95;30.05;;;8.80;99.90;;;;;;5067906;28;20120;-56
2020/12/25 04:53:13;;;;;;;341.67;31.27;;;8.80;99.90;;;;;;5068204;28;20079;-53
2020/12/25 04:55:39;;;;;;;324.50;32.05;;;8.80;99.90;;;;;;5069034;28;20522;-57
2020/12/25 04:58:05;;;;;;;698.25;44.25;;;8.80;99.90;;;;;;5067119;28;20097;-56
2020/12/25 05:00:31;;;;;;;291.55;29.25;;;8.80;99.90;;;;;;5068880;28;20069;-54
2020/12/25 05:02:56;;;;;;;485.60;40.83;;;8.80;99.90;;;;;;5062441;28;20115;-57
2020/12/25 05:05:30;;;;;;;594.58;45.33;;;8.80;99.90;;;;;;5049294;28;20044;-56
2020/12/25 05:07:58;;;;;;;483.15;39.28;;;8.80;99.90;;;;;;5049471;28;20024;-55
2020/12/25 05:10:24;;;;;;;451.20;36.15;;;8.70;99.90;;;;;;5066749;28;20047;-49
2020/12/25 05:12:50;;;;;;;293.67;31.50;;;8.70;99.90;;;;;;5067583;28;20119;-49
2020/12/25 05:15:16;;;;;;;314.02;31.73;;;8.70;99.90;;;;;;5064328;28;20040;-53
2020/12/25 05:17:43;;;;;;;242.00;29.88;;;8.70;99.90;;;;;;5068637;28;20028;-56
2020/12/25 05:20:09;;;;;;;261.15;28.23;;;8.60;99.90;;;;;;5065422;28;20029;-57
2020/12/25 05:22:36;;;;;;;122.13;25.55;;;8.70;99.90;;;;;;5064270;28;20044;-54
2020/12/25 05:25:04;;;;;;;162.40;27.25;;;8.70;99.90;;;;;;5067881;28;20126;-56
2020/12/25 05:27:30;;;;;;;152.48;25.67;;;8.70;99.90;;;;;;5068240;28;20040;-57
2020/12/25 05:30:01;;;;;;;104.72;24.17;;;8.70;99.90;;;;;;5066412;28;20041;-56
2020/12/25 05:32:29;;;;;;;73.78;20.50;;;8.70;99.90;;;;;;5067924;28;20039;-54
2020/12/25 05:34:57;;;;;;;63.80;16.25;;;8.70;99.90;;;;;;5068761;28;20143;-50
2020/12/25 05:37:33;;;;;;;32.75;10.70;;;8.70;99.90;;;;;;5067633;28;20033;-57
2020/12/25 05:40:00;;;;;;;;;;;8.70;99.90;;;;;;5049780;28;20029;-54
2020/12/25 05:42:26;;;;;;;8.30;3.00;;;8.50;99.90;;;;;;5068166;28;19950;-55
2020/12/25 05:44:52;;;;;;;5.00;1.70;;;8.90;99.90;;;;;;5068646;28;20456;-51
2020/12/25 05:47:18;;;;;;;6.80;0.88;;;8.90;99.90;;;;;;5065801;28;20056;-52
2020/12/25 05:49:44;;;;;;;1.92;0.30;;;8.90;99.90;;;;;;5067656;28;20399;-53
2020/12/25 05:52:12;;;;;;;1.00;0.20;;;8.80;99.90;;;;;;5066481;28;20430;-58
2020/12/25 05:54:41;;;;;;;2.80;0.20;;;8.90;99.90;;;;;;5067706;28;20037;-56
2020/12/25 05:57:08;;;;;;;2.92;0.30;;;8.90;99.90;;;;;;5066068;28;21300;-54
2020/12/25 05:59:34;;;;;;;1.58;0.40;;;8.80;99.90;;;;;;5066677;28;20029;-56
2020/12/25 06:02:02;;;;;;;2.20;0.25;;;8.80;99.90;;;;;;5063862;28;20066;-58
2020/12/25 06:04:30;;;;;;;2.65;0.30;;;8.80;99.90;;;;;;5067385;28;20052;-53
2020/12/25 06:06:57;;;;;;;1.20;0.17;;;8.70;99.90;;;;;;5068492;28;20029;-54
2020/12/25 06:09:31;;;;;;;1.33;0.20;;;8.50;99.90;;;;;;5065544;28;20123;-54
2020/12/25 06:11:57;;;;;;;1.50;0.35;;;8.50;99.90;;;;;;5067254;28;20503;-55
2020/12/25 06:14:23;;;;;;;3.55;0.20;;;8.40;99.90;;;;;;5067312;28;20068;-53
2020/12/25 06:17:14;;;;;;;1.98;0.30;;;8.40;99.90;;;;;;5066800;28;20032;-53
2020/12/25 06:19:45;;;;;;;2.63;0.75;;;8.40;99.90;;;;;;5064232;28;20574;-53
2020/12/25 06:22:28;;;;;;;1.00;0.20;;;8.30;99.90;;;;;;5061549;28;20635;-51
2020/12/25 06:24:57;;;;;;;0.65;0.10;;;8.40;99.90;;;;;;5068276;28;20504;-58
2020/12/25 06:27:26;;;;;;;0.40;0.10;;;8.40;99.90;;;;;;5067175;28;20040;-55
2020/12/25 06:29:54;;;;;;;0.25;0.03;;;8.40;99.90;;;;;;5066971;28;20077;-56
2020/12/25 06:32:22;;;;;;;0.32;0.00;;;8.40;99.90;;;;;;5064021;28;20037;-56
2020/12/25 06:34:50;;;;;;;0.47;0.10;;;8.30;99.90;;;;;;5047859;28;20491;-58
2020/12/25 06:37:16;;;;;;;0.43;0.10;;;8.30;99.90;;;;;;5050212;28;20044;-56
2020/12/25 06:39:54;;;;;;;6.35;0.32;;;8.20;99.90;;;;;;5067275;28;20150;-49
2020/12/25 06:42:40;;;;;;;4.22;0.20;;;8.20;99.90;;;;;;5066092;28;20400;-54
2020/12/25 06:45:11;;;;;;;0.52;0.17;;;8.00;99.90;;;;;;5067761;28;20071;-57
2020/12/25 06:47:39;;;;;;;0.10;0.00;;;8.00;99.90;;;;;;5052180;28;20049;-54
2020/12/25 06:50:13;;;;;;;1.65;0.00;;;8.00;99.90;;;;;;5055376;28;20153;-55
2020/12/25 06:52:53;;;;;;;2.75;0.08;;;8.00;99.90;;;;;;5070818;28;20036;-58
2020/12/25 06:55:39;;;;;;;1.33;0.00;;;7.90;99.90;;;;;;5071601;28;20028;-50
2020/12/25 06:58:05;;;;;;;3.28;0.10;;;7.80;99.90;;;;;;5068670;28;20036;-54
2020/12/25 07:00:31;;;;;;;0.82;0.10;;;7.70;99.90;;;;;;5069095;28;20051;-56
2020/12/25 07:03:13;;;;;;;1.48;0.10;;;7.70;99.90;;;;;;5071339;28;20028;-52
2020/12/25 07:05:45;;;;;;;0.60;0.17;;;7.70;99.90;;;;;;5068657;28;20037;-51
2020/12/25 07:08:28;;;;;;;0.00;0.00;;;7.70;99.90;;;;;;5071171;28;20064;-57
2020/12/25 07:11:06;;;;;;;0.03;0.00;;;7.80;99.90;;;;;;5068189;28;20048;-54
2020/12/25 07:13:32;;;;;;;0.20;0.00;;;7.90;99.90;;;;;;5071169;28;20399;-56
2020/12/25 07:15:58;;;;;;;0.25;0.00;;;8.00;99.90;;;;;;5058370;28;20551;-57
2020/12/25 07:18:25;;;;;;;0.10;0.00;;;7.90;99.90;;;;;;5050854;28;20033;-57
2020/12/25 07:20:51;;;;;;;0.22;0.00;;;7.80;99.90;;;;;;5057585;28;20105;-59
2020/12/25 07:23:20;;;;;;;0.00;0.00;;;7.80;99.90;;;;;;5069354;28;20032;-56
2020/12/25 07:25:47;;;;;;;0.25;0.00;;;7.70;99.90;;;;;;5069998;28;20439;-58
2020/12/25 07:28:13;;;;;;;1.40;0.00;;;7.70;99.90;;;;;;5069982;28;20043;-56
2020/12/25 07:30:39;;;;;;;0.30;0.00;;;7.60;99.90;;;;;;5068037;28;20431;-53
2020/12/25 07:33:06;;;;;;;0.00;0.00;;;7.60;99.90;;;;;;5069329;28;20113;-58
2020/12/25 07:35:32;;;;;;;0.75;0.00;;;7.60;99.90;;;;;;5070981;28;20029;-57
2020/12/25 07:37:58;;;;;;;0.60;0.00;;;7.60;99.90;;;;;;5068111;28;20067;-56
2020/12/25 07:40:25;;;;;;;1.70;0.00;;;7.50;99.90;;;;;;5069739;28;20074;-57
2020/12/25 07:42:51;;;;;;;0.68;0.00;;;7.50;99.90;;;;;;5066250;28;20029;-60
2020/12/25 07:45:17;;;;;;;0.20;0.00;;;7.50;99.90;;;;;;5050470;28;20027;-54
2020/12/25 07:47:43;;;;;;;0.30;0.00;;;7.50;99.90;;;;;;5052637;28;20053;-59
2020/12/25 07:50:09;;;;;;;0.77;0.10;;;7.50;99.90;;;;;;5064536;28;20052;-56
2020/12/25 07:52:35;;;;;;;1.75;0.20;;;7.50;99.90;;;;;;5066881;28;20040;-58
2020/12/25 07:55:01;;;;;;;0.43;0.10;;;7.50;99.90;;;;;;5068032;28;20032;-58
2020/12/25 07:57:27;;;;;;;0.30;0.10;;;7.70;99.90;;;;;;5070184;28;20036;-54
2020/12/25 07:59:55;;;;;;;1.65;0.10;;;7.70;99.90;;;;;;5064263;28;20044;-56
2020/12/25 08:02:22;;;;;;;0.20;0.00;;;7.70;99.90;;;;;;5069855;28;20361;-57
2020/12/25 08:04:48;;;;;;;0.17;0.03;;;7.60;99.90;;;;;;5063758;28;20079;-59
2020/12/25 08:07:14;;;;;;;0.20;0.10;;;7.70;99.90;;;;;;5049989;28;20401;-56
2020/12/25 08:09:40;;;;;;;0.50;0.08;;;7.70;99.90;;;;;;5049922;28;20035;-57
2020/12/25 08:12:10;;;;;;;0.20;0.00;;;7.70;99.90;;;;;;5049913;28;20489;-58
2020/12/25 08:14:42;;;;;;;0.28;0.00;;;7.70;99.90;;;;;;5051695;28;20475;-58
2020/12/25 08:17:09;;;;;;;0.50;0.10;;;7.80;99.90;;;;;;5061217;28;20543;-57
2020/12/25 08:19:35;;;;;;;0.35;0.05;;;7.80;99.90;;;;;;5050025;28;20090;-52
2020/12/25 08:22:05;;;;;;;1.17;0.10;;;7.70;99.90;;;;;;5063746;28;20055;-56
2020/12/25 08:24:31;;;;;;;2.00;0.20;;;7.70;99.90;;;;;;5065309;28;20025;-58
2020/12/25 08:27:01;;;;;;;0.95;0.10;;;7.70;99.90;;;;;;5067413;28;20039;-55
2020/12/25 08:29:32;;;;;;;0.47;0.13;;;7.60;99.90;;;;;;5039752;28;20718;-50
2020/12/25 08:32:10;;;;;;;0.50;0.20;;;7.60;99.90;;;;;;5064894;28;20124;-57
2020/12/25 08:34:36;;;;;;;0.28;0.08;;;7.60;99.90;;;;;;5068485;28;20040;-58
2020/12/25 08:37:13;;;;;;;0.30;0.10;;;7.70;99.90;;;;;;5059923;28;20029;-56
2020/12/25 08:39:40;;;;;;;0.20;0.00;;;7.70;99.90;;;;;;5067849;28;20083;-55
2020/12/25 08:42:09;;;;;;;0.17;0.00;;;7.70;99.90;;;;;;5055115;28;20029;-55
2020/12/25 08:44:36;;;;;;;0.30;0.00;;;7.70;99.90;;;;;;5065330;28;20439;-58
2020/12/25 08:47:11;;;;;;;0.38;0.00;;;7.60;99.90;;;;;;5068056;28;20056;-56
2020/12/25 08:49:37;;;;;;;0.10;0.00;;;7.60;99.90;;;;;;5067988;28;20511;-57
2020/12/25 08:52:03;;;;;;;0.08;0.00;;;7.60;99.90;;;;;;5051301;28;20036;-56
2020/12/25 08:54:30;;;;;;;0.40;0.10;;;7.50;99.90;;;;;;5067348;28;20040;-53
2020/12/25 08:56:56;;;;;;;0.40;0.10;;;7.60;99.90;;;;;;5067815;28;20078;-54
2020/12/25 08:59:22;;;;;;;1.65;0.30;;;7.60;99.90;;;;;;5066306;28;20442;-57
2020/12/25 09:01:50;;;;;;;0.55;0.10;;;7.60;99.90;;;;;;5066368;28;20477;-55
2020/12/25 09:04:22;;;;;;;0.50;0.10;;;7.60;99.90;;;;;;5068896;28;20024;-58
2020/12/25 09:06:51;;;;;;;1.92;0.20;;;7.60;99.90;;;;;;5067115;28;20404;-54
2020/12/25 09:09:17;;;;;;;5.82;0.20;;;7.60;99.90;;;;;;5067972;28;20036;-58
2020/12/25 09:11:44;;;;;;;2.88;0.55;;;7.70;99.90;;;;;;5067476;28;20122;-53
2020/12/25 09:14:10;;;;;;;6.57;3.17;;;7.70;99.90;;;;;;5067505;28;20040;-52
2020/12/25 09:16:35;;;;;;;4.47;2.38;;;7.70;99.90;;;;;;5055435;28;20106;-53
2020/12/25 09:19:01;;;;;;;2.97;1.52;;;7.70;99.90;;;;;;5069026;28;20070;-54
2020/12/25 09:21:28;;;;;;;1.80;0.80;;;7.80;99.90;;;;;;5067173;28;20106;-57
2020/12/25 09:23:55;;;;;;;2.95;1.00;;;7.80;99.90;;;;;;5067734;28;20430;-52
2020/12/25 09:26:20;;;;;;;2.03;0.88;;;7.80;99.90;;;;;;5067510;28;20025;-55
2020/12/25 09:28:46;;;;;;;2.05;0.20;;;7.80;99.90;;;;;;5067124;28;20093;-56
2020/12/25 09:31:13;;;;;;;0.55;0.20;;;7.80;99.90;;;;;;5038369;28;20408;-56
2020/12/25 09:33:39;;;;;;;1.45;0.30;;;7.80;99.90;;;;;;5068661;28;20036;-53
2020/12/25 09:36:07;;;;;;;0.95;0.35;;;7.70;99.90;;;;;;5056831;28;20480;-52
2020/12/25 09:38:34;;;;;;;1.48;0.43;;;7.70;99.90;;;;;;5048630;28;20065;-54
2020/12/25 09:41:02;;;;;;;1.10;0.20;;;7.70;99.90;;;;;;5048446;28;20112;-56
2020/12/25 09:43:29;;;;;;;0.90;0.20;;;7.70;99.90;;;;;;5048642;28;20029;-54
2020/12/25 09:45:58;;;;;;;1.73;0.30;;;7.70;99.90;;;;;;5048417;28;20128;-55
2020/12/25 09:48:25;;;;;;;1.17;0.20;;;7.80;99.90;;;;;;5060715;28;20434;-55
2020/12/25 09:50:51;;;;;;;0.50;0.15;;;7.80;99.90;;;;;;5068187;28;20040;-54
2020/12/25 09:53:17;;;;;;;1.08;0.30;;;7.80;99.90;;;;;;5068661;28;20082;-54
2020/12/25 09:55:43;;;;;;;1.63;0.50;;;7.80;99.90;;;;;;5068229;28;20033;-52
2020/12/25 09:58:09;;;;;;;3.60;1.77;;;7.70;99.90;;;;;;5068264;28;20032;-57
2020/12/25 10:00:35;;;;;;;1.95;0.77;;;7.60;99.90;;;;;;5067643;28;20104;-53
2020/12/25 10:03:01;;;;;;;3.10;1.58;;;7.60;99.90;;;;;;5066310;28;20044;-53
2020/12/25 10:05:27;;;;;;;2.55;1.40;;;7.60;99.90;;;;;;5052223;28;20033;-51
2020/12/25 10:07:53;;;;;;;3.03;0.82;;;7.60;99.90;;;;;;5067696;28;20040;-55
2020/12/25 10:10:20;;;;;;;1.42;0.40;;;7.70;99.90;;;;;;5059753;28;20511;-52
2020/12/25 10:12:50;;;;;;;3.97;0.93;;;7.80;99.90;;;;;;5046584;28;20510;-53
2020/12/25 10:15:16;;;;;;;4.25;1.35;;;7.80;99.90;;;;;;5063514;28;20466;-51
2020/12/25 10:17:42;;;;;;;3.88;0.80;;;7.80;99.90;;;;;;5048645;28;20068;-50
2020/12/25 10:20:08;;;;;;;2.63;0.50;;;7.80;99.90;;;;;;5048871;28;20031;-53
2020/12/25 10:22:34;;;;;;;1.17;0.25;;;7.80;99.90;;;;;;5059328;28;20156;-55
2020/12/25 10:25:00;;;;;;;1.30;0.30;;;7.80;99.90;;;;;;5049012;28;20025;-54
2020/12/25 10:27:26;;;;;;;0.82;0.20;;;7.70;99.90;;;;;;5063903;28;20395;-56
2020/12/25 10:29:52;;;;;;;0.65;0.20;;;7.70;99.90;;;;;;5060409;28;20029;-56
2020/12/25 10:32:18;;;;;;;0.90;0.30;;;7.70;99.90;;;;;;5065488;28;20025;-56
2020/12/25 10:34:44;;;;;;;1.88;0.30;;;7.60;99.90;;;;;;5058353;28;20029;-56
2020/12/25 10:37:10;;;;;;;1.10;0.30;;;7.60;99.90;;;;;;5053424;28;20066;-52
2020/12/25 10:39:37;;;;;;;1.13;0.35;;;7.60;99.90;;;;;;5055609;28;20024;-54
2020/12/25 10:42:07;;;;;;;1.35;0.57;;;7.60;99.90;;;;;;5060310;28;20131;-56
2020/12/25 10:44:33;;;;;;;2.88;1.52;;;7.60;99.90;;;;;;5066296;28;20040;-53
2020/12/25 10:46:59;;;;;;;2.67;1.63;;;7.60;99.90;;;;;;5051785;28;20057;-55
2020/12/25 10:49:26;;;;;;;1.35;0.85;;;7.60;99.90;;;;;;5060164;28;20035;-54
2020/12/25 10:51:52;;;;;;;2.42;0.70;;;7.60;99.90;;;;;;5064557;28;20044;-51
2020/12/25 10:54:17;;;;;;;1.02;0.40;;;7.60;99.90;;;;;;5061531;28;20029;-53
2020/12/25 10:56:43;;;;;;;1.45;0.40;;;7.50;99.90;;;;;;5061810;28;20047;-54
2020/12/25 10:59:09;;;;;;;1.20;0.50;;;7.70;99.90;;;;;;5053550;28;20440;-57
2020/12/25 11:01:35;;;;;;;0.88;0.30;;;7.70;99.90;;;;;;5052986;28;20033;-54
2020/12/25 11:04:00;;;;;;;0.50;0.20;;;7.90;99.90;;;;;;5057622;28;20028;-52
2020/12/25 11:06:31;;;;;;;0.40;0.10;;;8.00;99.90;;;;;;5059916;28;20040;-51
2020/12/25 11:08:57;;;;;;;1.80;0.30;;;8.00;99.90;;;;;;5062375;28;20028;-54
2020/12/25 11:11:27;;;;;;;2.92;0.70;;;7.80;99.90;;;;;;5051909;28;20068;-56
2020/12/25 11:13:54;;;;;;;1.65;0.57;;;7.70;99.90;;;;;;5057199;28;20032;-52
2020/12/25 11:16:23;;;;;;;2.67;0.60;;;7.60;99.90;;;;;;5067946;28;20068;-56
2020/12/25 11:18:49;;;;;;;0.52;0.30;;;7.60;99.90;;;;;;5055905;28;20028;-54
2020/12/25 11:21:22;;;;;;;1.60;0.50;;;7.60;99.90;;;;;;5058319;28;20064;-57
2020/12/25 11:23:50;;;;;;;1.02;0.40;;;7.60;99.90;;;;;;5054271;28;20047;-56
2020/12/25 11:26:20;;;;;;;0.88;0.40;;;7.70;99.90;;;;;;5056912;28;20397;-56
2020/12/25 11:28:46;;;;;;;0.85;0.30;;;7.60;99.90;;;;;;5059467;28;20443;-56
2020/12/25 11:31:13;;;;;;;3.05;0.70;;;7.60;99.90;;;;;;5060120;28;20125;-55
2020/12/25 11:33:39;;;;;;;8.35;4.85;;;7.60;99.90;;;;;;5052386;28;20031;-53
2020/12/25 11:36:05;;;;;;;9.00;4.85;;;7.60;99.90;;;;;;5052791;28;20119;-53
2020/12/25 11:38:31;;;;;;;8.13;4.28;;;7.50;99.90;;;;;;5056125;28;20032;-53
2020/12/25 11:40:57;;;;;;;3.95;2.47;;;7.60;99.90;;;;;;5062616;28;20037;-52
2020/12/25 11:43:22;;;;;;;4.03;1.90;;;7.60;99.90;;;;;;5054323;28;20403;-52
2020/12/25 11:45:48;;;;;;;5.15;2.00;;;7.50;99.90;;;;;;5053773;28;20067;-54
2020/12/25 11:48:14;;;;;;;6.10;2.50;;;7.50;99.90;;;;;;5068384;28;20132;-50
2020/12/25 11:50:40;;;;;;;4.22;2.88;;;7.50;99.90;;;;;;5060157;28;20056;-54
2020/12/25 11:53:05;;;;;;;3.55;1.80;;;7.50;99.90;;;;;;5059750;28;20078;-51
2020/12/25 11:55:31;;;;;;;4.53;2.35;;;7.50;99.90;;;;;;5055986;28;20036;-55
2020/12/25 11:57:57;;;;;;;6.57;2.85;;;7.50;99.90;;;;;;5068373;28;20036;-55
2020/12/25 12:00:23;;;;;;;4.05;1.70;;;7.50;99.90;;;;;;5062555;28;20045;-55
2020/12/25 12:02:48;;;;;;;3.85;1.83;;;7.50;99.90;;;;;;5056457;28;20036;-54
2020/12/25 12:05:14;;;;;;;11.75;4.65;;;7.50;99.90;;;;;;5056044;28;20472;-56
2020/12/25 12:07:40;;;;;;;10.32;4.00;;;7.50;99.90;;;;;;5058202;28;20029;-56
2020/12/25 12:10:06;;;;;;;8.27;3.00;;;7.50;99.90;;;;;;5053918;28;20056;-55
2020/12/25 12:12:32;;;;;;;5.70;2.50;;;7.50;99.90;;;;;;5064963;28;20032;-54
2020/12/25 12:14:57;;;;;;;3.75;1.92;;;7.40;99.90;;;;;;5061366;28;20025;-57
2020/12/25 12:17:23;;;;;;;3.80;2.30;;;7.50;99.90;;;;;;5054825;28;20463;-51
2020/12/25 12:19:49;;;;;;;3.00;1.60;;;7.50;99.90;;;;;;5066901;28;20548;-52
2020/12/25 12:22:15;;;;;;;1.48;0.50;;;7.60;99.90;;;;;;5062387;28;20025;-50
2020/12/25 12:24:41;;;;;;;5.13;2.40;;;7.50;99.90;;;;;;5057709;28;20037;-56
2020/12/25 12:27:07;;;;;;;3.30;2.03;;;7.50;99.90;;;;;;5065130;28;20087;-56
2020/12/25 12:29:33;;;;;;;1.63;0.50;;;7.50;99.90;;;;;;5063450;28;20036;-58
2020/12/25 12:31:58;;;;;;;1.50;0.88;;;7.50;99.90;;;;;;5064765;28;20467;-59
2020/12/25 12:34:24;;;;;;;1.33;0.40;;;7.50;99.90;;;;;;5070044;28;20475;-57
2020/12/25 12:36:50;;;;;;;0.93;0.30;;;7.50;99.90;;;;;;5065638;28;20082;-55
2020/12/25 12:39:16;;;;;;;3.33;0.70;;;7.60;99.90;;;;;;5068244;28;20040;-56
2020/12/25 12:41:41;;;;;;;2.35;0.63;;;7.60;99.90;;;;;;5060060;28;20051;-58
2020/12/25 12:44:07;;;;;;;0.98;0.20;;;7.60;99.90;;;;;;5064467;28;20361;-57
2020/12/25 12:46:33;;;;;;;0.30;0.10;;;7.80;99.90;;;;;;5055366;28;20064;-55
2020/12/25 12:48:59;;;;;;;0.10;0.00;;;8.00;99.90;;;;;;5068289;28;20032;-50